Terminal Aerodrome Forecast
Issued by NWS Austin/San Antonio, TX

Home | Current Version | Previous Version | Text Only | Print | Product List | Glossary On
Versions: 1 2 3 4 5 6 7 8 9 10 11 12 13 14 15 16 17
939
FTUS44 KEWX 211454 AAB
TAFAUS
TAF AMD
KAUS 211454Z 2115/2218 19005KT P6SM SCT009 BKN020 OVC200
     FM211600 21010KT P6SM SCT040 BKN200
     FM212300 35012KT P6SM BKN040
     FM220300 36014G24KT P6SM BKN035=

USA.gov is the U.S. government's official web portal to all federal, state and local government web resources and services.